Time;durP1;ratioP1;P1;durP2;ratioP2;P2;SDS_P1;SDS_P2;PMS_P1;PMS_P2;Temp;Humidity;BMP_temperature;BMP_pressure;BME280_temperature;BME280_humidity;BME280_pressure;Samples;Min_cycle;Max_cycle;Signal;HPM_P1;HPM_P2
2023/08/27 00:01:12;;;;;;;7.00;3.75;;;;;;;14.30;91.11;101021.81;4980436;28;19999;-74
2023/08/27 00:03:41;;;;;;;4.35;3.47;;;;;;;14.31;91.67;101022.63;5007403;28;20068;-72
2023/08/27 00:06:16;;;;;;;4.50;3.53;;;;;;;14.30;91.53;101021.81;4985690;28;20407;-72
2023/08/27 00:08:41;;;;;;;;;;;;;;;14.25;91.10;101018.38;4976681;28;20033;-75
2023/08/27 00:11:07;;;;;;;3.40;2.50;;;;;;;14.19;91.05;101020.31;5006488;28;19913;-72
2023/08/27 00:13:33;;;;;;;;;;;;;;;14.19;91.03;101012.25;5015394;28;20695;-71
2023/08/27 00:15:58;;;;;;;4.50;3.00;;;;;;;14.15;90.76;101013.88;4974874;28;19926;-73
2023/08/27 00:18:24;;;;;;;;;;;;;;;14.12;90.67;101017.16;5006370;28;20573;-73
2023/08/27 00:20:50;;;;;;;4.75;2.67;;;;;;;14.07;90.99;101017.22;5002625;28;19924;-72
2023/08/27 00:23:16;;;;;;;;;;;;;;;14.04;91.43;101007.81;4996463;28;20041;-72
2023/08/27 00:25:45;;;;;;;7.20;3.13;;;;;;;14.01;91.20;101012.97;4988587;28;20064;-73
2023/08/27 00:28:14;;;;;;;5.63;3.10;;;;;;;13.97;91.27;100996.59;5014963;28;20053;-72
2023/08/27 00:30:41;;;;;;;4.85;2.95;;;;;;;13.94;91.11;101000.66;5000663;28;20065;-73
2023/08/27 00:33:07;;;;;;;;;;;;;;;13.92;91.09;100989.38;4990997;28;20030;-73
2023/08/27 00:35:37;;;;;;;4.50;3.28;;;;;;;13.87;90.78;100975.94;5004982;28;19917;-72
2023/08/27 00:38:06;;;;;;;6.05;2.85;;;;;;;13.84;90.53;100970.34;4991152;28;20048;-74
2023/08/27 00:40:34;;;;;;;5.38;3.20;;;;;;;13.80;90.59;100964.72;5003186;28;20033;-74
2023/08/27 00:43:02;;;;;;;5.90;2.70;;;;;;;13.77;90.66;100965.31;4991369;28;20030;-75
2023/08/27 00:45:28;;;;;;;4.95;3.50;;;;;;;13.73;91.07;100966.94;5001495;28;20461;-74
2023/08/27 00:47:59;;;;;;;5.15;3.50;;;;;;;13.66;91.24;100964.59;4993815;28;20360;-73
2023/08/27 00:50:26;;;;;;;6.25;3.50;;;;;;;13.62;91.13;100970.84;5007118;28;20069;-73
2023/08/27 00:52:52;;;;;;;6.72;3.40;;;;;;;13.56;91.40;100966.59;4988204;28;20084;-73
2023/08/27 00:55:18;;;;;;;6.65;3.40;;;;;;;13.56;91.57;100970.09;4989080;28;20041;-73
2023/08/27 00:57:43;;;;;;;;;;;;;;;13.51;91.49;100970.13;5012003;28;20091;-73
2023/08/27 01:00:09;;;;;;;5.05;3.03;;;;;;;13.50;91.63;100959.66;4988172;28;19931;-72
2023/08/27 01:02:38;;;;;;;3.30;2.83;;;;;;;13.49;91.65;100960.75;5005260;28;20125;-71
2023/08/27 01:05:04;;;;;;;6.43;2.95;;;;;;;13.47;91.66;100950.25;4987974;28;20046;-74
2023/08/27 01:07:39;;;;;;;4.35;3.28;;;;;;;13.48;91.34;100968.03;4972777;28;20048;-74
2023/08/27 01:10:26;;;;;;;5.28;3.47;;;;;;;13.48;91.56;100977.94;4991107;28;20061;-75
2023/08/27 01:13:01;;;;;;;5.53;3.55;;;;;;;13.48;91.51;100977.94;5007770;28;20120;-73
2023/08/27 01:15:28;;;;;;;3.42;2.92;;;;;;;13.48;91.67;100983.34;4991766;28;20038;-74
2023/08/27 01:17:57;;;;;;;4.00;3.42;;;;;;;13.46;91.98;100980.94;5006300;28;20034;-73
2023/08/27 01:20:25;;;;;;;4.38;3.28;;;;;;;13.48;91.73;100986.03;4987353;28;20118;-74
2023/08/27 01:22:51;;;;;;;4.40;3.65;;;;;;;13.48;91.86;100988.72;4978725;28;20029;-74
2023/08/27 01:25:19;;;;;;;;;;;;;;;13.48;92.00;100991.41;4992504;28;20061;-72
2023/08/27 01:27:54;;;;;;;7.05;3.38;;;;;;;13.45;92.33;100984.72;4996283;28;20385;-73
2023/08/27 01:30:29;;;;;;;6.25;4.20;;;;;;;13.45;92.63;100976.66;5002273;28;20025;-73
2023/08/27 01:33:00;;;;;;;5.88;3.00;;;;;;;13.43;92.07;100962.69;4999147;28;20033;-70
2023/08/27 01:35:29;;;;;;;5.35;3.60;;;;;;;13.41;92.08;100983.66;4972305;28;20515;-73
2023/08/27 01:37:55;;;;;;;5.35;3.75;;;;;;;13.41;92.50;100993.63;4990260;28;20529;-72
2023/08/27 01:40:21;;;;;;;;;;;;;;;13.38;92.33;101000.38;5018361;28;20037;-72
2023/08/27 01:42:47;;;;;;;5.40;3.92;;;;;;;13.37;92.31;100999.56;5005094;28;19999;-74
2023/08/27 01:45:14;;;;;;;4.65;3.10;;;;;;;13.38;92.32;101001.19;5003071;28;20042;-71
2023/08/27 01:47:40;;;;;;;5.43;3.88;;;;;;;13.39;92.25;101004.66;5002928;28;20491;-73
2023/08/27 01:50:05;;;;;;;;;;;;;;;13.39;92.48;100994.72;5005546;28;20038;-73
2023/08/27 01:52:33;;;;;;;4.35;3.53;;;;;;;13.36;92.65;100986.41;5001686;28;19925;-71
2023/08/27 01:54:59;;;;;;;4.13;3.30;;;;;;;13.35;92.33;100971.38;4972283;28;20956;-73
2023/08/27 01:57:24;;;;;;;;;;;;;;;13.33;92.34;100955.47;4999212;28;20117;-73
2023/08/27 02:00:24;;;;;;;5.93;2.63;;;;;;;13.27;91.98;100940.47;4966521;28;19921;-75
2023/08/27 02:02:50;;;;;;;5.20;3.35;;;;;;;13.23;92.29;100939.44;4987996;28;20083;-73
2023/08/27 02:05:16;;;;;;;4.97;3.25;;;;;;;13.22;92.23;100932.47;4982172;28;20578;-74
2023/08/27 02:07:42;;;;;;;;;;;;;;;13.20;92.36;100934.63;4987481;28;20033;-74
2023/08/27 02:10:09;;;;;;;4.97;3.13;;;;;;;13.18;92.32;100926.00;4988243;28;20038;-73
2023/08/27 02:12:35;;;;;;;5.18;3.83;;;;;;;13.17;91.73;100926.31;4988101;28;20471;-73
2023/08/27 02:15:03;;;;;;;6.53;3.05;;;;;;;13.14;91.69;100916.91;4987994;28;20113;-72
2023/08/27 02:17:30;;;;;;;9.23;4.05;;;;;;;13.11;91.68;100912.09;5002600;28;20045;-72
2023/08/27 02:19:55;;;;;;;3.95;3.25;;;;;;;13.09;91.36;100906.19;4985431;28;20072;-74
2023/08/27 02:22:22;;;;;;;5.10;3.72;;;;;;;13.05;91.26;100905.94;4999429;28;20069;-74
2023/08/27 02:24:49;;;;;;;5.03;3.22;;;;;;;13.03;91.50;100900.06;5016151;28;20041;-72
2023/08/27 02:27:15;;;;;;;4.97;3.42;;;;;;;13.02;91.75;100894.97;4996582;28;20041;-74
2023/08/27 02:29:42;;;;;;;6.88;3.80;;;;;;;12.98;91.70;100893.91;5007883;28;20458;-71
2023/08/27 02:32:08;;;;;;;4.95;3.40;;;;;;;12.94;91.65;100906.31;4999917;28;20050;-72
2023/08/27 02:34:33;;;;;;;4.80;4.00;;;;;;;12.93;90.98;100912.78;4983305;28;20405;-74
2023/08/27 02:36:59;;;;;;;6.03;3.53;;;;;;;12.90;91.20;100919.53;4984801;28;20037;-73
2023/08/27 02:39:25;;;;;;;;;;;;;;;12.90;91.08;100929.47;4986063;28;20529;-72
2023/08/27 02:41:50;;;;;;;4.05;3.17;;;;;;;12.84;91.59;100921.44;5003471;28;19993;-71
2023/08/27 02:44:16;;;;;;;;;;;;;;;12.87;92.02;100938.06;4970947;28;20062;-73
2023/08/27 02:46:42;;;;;;;5.53;3.55;;;;;;;12.84;92.60;100936.75;4985329;28;19917;-73
2023/08/27 02:49:08;;;;;;;5.20;3.67;;;;;;;12.82;92.59;100929.00;5001212;28;20487;-73
2023/08/27 02:51:33;;;;;;;6.90;4.32;;;;;;;12.83;93.25;100925.22;4997060;28;20056;-73
2023/08/27 02:53:59;;;;;;;5.50;4.43;;;;;;;12.81;93.38;100911.25;5001216;28;20044;-73
2023/08/27 02:56:25;;;;;;;4.85;4.05;;;;;;;12.78;93.15;100893.00;4987717;28;20092;-71
2023/08/27 02:58:51;;;;;;;4.47;3.50;;;;;;;12.79;93.02;100891.91;5009736;28;20030;-71
2023/08/27 03:01:20;;;;;;;4.55;3.83;;;;;;;12.80;92.52;100898.91;5005954;28;20431;-73
2023/08/27 03:03:48;;;;;;;5.82;3.67;;;;;;;12.80;92.46;100898.91;4984529;28;20124;-74
2023/08/27 03:06:14;;;;;;;4.65;3.80;;;;;;;12.77;92.45;100899.44;4982238;28;20073;-72
2023/08/27 03:08:39;;;;;;;5.78;4.07;;;;;;;12.75;92.60;100895.44;5006207;28;20617;-73
2023/08/27 03:11:06;;;;;;;6.20;3.67;;;;;;;12.74;92.53;100899.22;4987699;28;20042;-72
2023/08/27 03:13:31;;;;;;;;;;;;;;;12.71;92.59;100892.50;5013858;28;20850;-73
2023/08/27 03:15:58;;;;;;;6.20;4.22;;;;;;;12.64;92.93;100883.16;4986670;28;19917;-72
2023/08/27 03:18:24;;;;;;;5.45;4.03;;;;;;;12.67;93.35;100886.09;5001257;28;20069;-74
2023/08/27 03:20:51;;;;;;;4.45;3.60;;;;;;;12.73;93.46;100879.59;5006380;28;20068;-74
2023/08/27 03:23:18;;;;;;;6.40;4.30;;;;;;;12.70;94.28;100869.41;5005141;28;20536;-71
2023/08/27 03:25:44;;;;;;;5.50;4.13;;;;;;;12.73;94.07;100876.91;5010025;28;20025;-72
2023/08/27 03:28:10;;;;;;;4.97;3.90;;;;;;;12.74;94.29;100866.97;5002082;28;20042;-72
2023/08/27 03:30:39;;;;;;;6.88;4.22;;;;;;;12.72;93.95;100864.56;5012488;28;20036;-74
2023/08/27 03:33:05;;;;;;;4.38;3.78;;;;;;;12.70;94.04;100861.34;5003473;28;20065;-74
2023/08/27 03:35:33;;;;;;;7.38;4.70;;;;;;;12.73;94.02;100860.78;5002795;28;20041;-73
2023/08/27 03:37:58;;;;;;;;;;;;;;;12.77;93.89;100864.53;5004612;28;20034;-72
2023/08/27 03:40:24;;;;;;;5.80;3.75;;;;;;;12.78;93.66;100862.63;5015572;28;20026;-74
2023/08/27 03:42:51;;;;;;;;;;;;;;;12.77;93.83;100858.34;5020153;28;20042;-73
2023/08/27 03:45:17;;;;;;;7.97;4.20;;;;;;;12.76;93.85;100859.44;4998974;28;19952;-73
2023/08/27 03:47:44;;;;;;;8.38;4.38;;;;;;;12.74;93.33;100853.53;5000693;28;20060;-74
2023/08/27 03:50:10;;;;;;;6.78;3.88;;;;;;;12.72;92.91;100859.19;4992294;28;20042;-73
2023/08/27 03:52:36;;;;;;;7.07;4.55;;;;;;;12.68;93.06;100852.78;5005450;28;20034;-73
2023/08/27 03:55:02;;;;;;;5.95;3.75;;;;;;;12.69;92.83;100865.13;5003342;28;20454;-74
2023/08/27 03:57:28;;;;;;;8.48;4.50;;;;;;;12.67;93.20;100856.56;4974726;28;20775;-73
2023/08/27 03:59:54;;;;;;;4.85;3.58;;;;;;;12.64;93.25;100849.03;5002964;28;20138;-73
2023/08/27 04:02:20;;;;;;;5.07;3.90;;;;;;;12.62;92.67;100843.16;4983230;28;20041;-73
2023/08/27 04:04:47;;;;;;;6.80;4.05;;;;;;;12.58;92.76;100831.34;5003653;28;20037;-73
2023/08/27 04:07:13;;;;;;;4.57;3.78;;;;;;;12.57;92.57;100840.50;4995543;28;20044;-73
2023/08/27 04:09:39;;;;;;;6.28;3.97;;;;;;;12.52;92.54;100841.31;4990008;28;20095;-74
2023/08/27 04:12:05;;;;;;;5.97;3.78;;;;;;;12.48;92.42;100839.50;5007865;28;20189;-73
2023/08/27 04:14:32;;;;;;;4.47;3.65;;;;;;;12.44;92.83;100841.13;5001039;28;20700;-72
2023/08/27 04:16:57;;;;;;;5.65;3.67;;;;;;;12.41;92.83;100836.31;5012297;28;20471;-73
2023/08/27 04:19:24;;;;;;;4.40;3.55;;;;;;;12.40;93.06;100842.78;5006263;28;20734;-72
2023/08/27 04:21:50;;;;;;;5.95;4.20;;;;;;;12.34;92.96;100842.00;5005969;28;20224;-73
2023/08/27 04:24:16;;;;;;;5.28;3.85;;;;;;;12.33;92.69;100842.25;5004939;28;20033;-72
2023/08/27 04:26:41;;;;;;;6.28;3.83;;;;;;;12.32;92.71;100837.97;4988185;28;20046;-74
2023/08/27 04:29:09;;;;;;;4.53;4.10;;;;;;;12.29;92.55;100840.16;5023150;28;20042;-72
2023/08/27 04:31:36;;;;;;;5.60;3.90;;;;;;;12.28;92.64;100846.59;4989733;28;20034;-74
2023/08/27 04:34:03;;;;;;;5.15;3.47;;;;;;;12.27;92.58;100847.69;4987638;28;20077;-74
2023/08/27 04:36:30;;;;;;;5.00;3.50;;;;;;;12.27;92.80;100846.88;4999277;28;20034;-74
2023/08/27 04:38:56;;;;;;;5.03;3.60;;;;;;;12.27;92.91;100849.56;5004529;28;20104;-72
2023/08/27 04:41:22;;;;;;;4.47;3.80;;;;;;;12.25;92.80;100860.56;5006397;28;20350;-73
2023/08/27 04:43:47;;;;;;;7.20;4.03;;;;;;;12.27;92.90;100869.16;5004166;28;21540;-73
2023/08/27 04:46:14;;;;;;;;;;;;;;;12.27;92.68;100860.31;5006442;28;20045;-71
2023/08/27 04:48:40;;;;;;;4.63;4.03;;;;;;;12.25;92.88;100865.13;4990009;28;19917;-73
2023/08/27 04:51:07;;;;;;;6.97;3.80;;;;;;;12.26;92.88;100861.38;5012291;28;20037;-72
2023/08/27 04:53:34;;;;;;;6.00;3.75;;;;;;;12.26;93.16;100859.50;4992996;28;20037;-72
2023/08/27 04:55:59;;;;;;;6.30;3.58;;;;;;;12.32;93.61;100862.94;4993705;28;20040;-73
2023/08/27 04:58:25;;;;;;;;;;;;;;;12.37;93.84;100872.88;4987333;28;20384;-72
2023/08/27 05:00:54;;;;;;;5.30;4.43;;;;;;;12.39;94.09;100859.94;5007367;28;19921;-71
2023/08/27 05:03:19;;;;;;;9.70;5.38;;;;;;;12.43;94.45;100880.59;4991591;28;20103;-72
2023/08/27 05:05:46;;;;;;;6.00;5.18;;;;;;;12.45;95.28;100886.50;4994577;28;20240;-72
2023/08/27 05:08:12;;;;;;;7.13;5.20;;;;;;;12.47;95.65;100881.66;5007211;28;20545;-71
2023/08/27 05:10:38;;;;;;;11.02;5.65;;;;;;;12.51;95.29;100888.06;5003093;28;20168;-75
2023/08/27 05:13:03;;;;;;;;;;;;;;;12.58;95.06;100890.44;5007656;28;20033;-72
2023/08/27 05:15:29;;;;;;;6.85;4.75;;;;;;;12.60;95.39;100874.88;4992497;28;19956;-73
2023/08/27 05:17:55;;;;;;;6.72;5.50;;;;;;;12.62;94.68;100874.59;5012854;28;20113;-71
2023/08/27 05:20:21;;;;;;;;;;;;;;;12.69;95.10;100883.94;4990011;28;20144;-74
2023/08/27 05:22:47;;;;;;;7.68;4.68;;;;;;;12.72;95.21;100890.63;5007858;28;19920;-73
2023/08/27 05:25:12;;;;;;;;;;;;;;;12.77;95.21;100883.31;5003514;28;20033;-71
2023/08/27 05:27:43;;;;;;;9.05;5.53;;;;;;;12.79;95.29;100875.78;5006701;28;20403;-73
2023/08/27 05:30:14;;;;;;;6.10;4.75;;;;;;;12.83;95.15;100871.47;5001277;28;20087;-73
2023/08/27 05:32:41;;;;;;;6.32;4.50;;;;;;;12.85;95.02;100865.78;4984616;28;20026;-73
2023/08/27 05:35:09;;;;;;;5.70;4.32;;;;;;;12.85;94.72;100869.28;4991005;28;20603;-72
2023/08/27 05:37:36;;;;;;;8.50;5.85;;;;;;;12.84;95.38;100875.75;5001318;28;20041;-72
2023/08/27 05:40:05;;;;;;;5.35;4.35;;;;;;;12.87;95.34;100874.41;5024271;28;20026;-73
2023/08/27 05:42:32;;;;;;;5.38;4.88;;;;;;;12.91;95.38;100875.44;4971527;28;20037;-74
2023/08/27 05:44:58;;;;;;;6.50;4.93;;;;;;;12.96;95.17;100870.00;4995776;28;20041;-74
2023/08/27 05:47:24;;;;;;;6.13;4.55;;;;;;;12.99;95.48;100850.63;5008259;28;20095;-73
2023/08/27 05:49:49;;;;;;;5.97;4.82;;;;;;;13.01;95.17;100847.66;4974460;28;20033;-73
2023/08/27 05:52:15;;;;;;;5.90;4.40;;;;;;;13.07;94.81;100846.50;5001049;28;20048;-75
2023/08/27 05:54:41;;;;;;;;;;;;;;;13.11;94.95;100855.63;5008650;28;20751;-74
2023/08/27 05:57:07;;;;;;;4.95;4.38;;;;;;;13.14;94.83;100855.06;4996390;28;19940;-75
2023/08/27 05:59:33;;;;;;;;;;;;;;;13.23;95.12;100848.00;5003965;28;20033;-74
2023/08/27 06:01:59;;;;;;;5.70;4.65;;;;;;;13.21;94.61;100839.44;5010036;28;19917;-75
2023/08/27 06:04:27;;;;;;;6.53;4.95;;;;;;;13.24;94.42;100844.22;4991554;28;20042;-73
2023/08/27 06:06:53;;;;;;;;;;;;;;;13.30;94.94;100842.31;4988636;28;20704;-73
2023/08/27 06:09:19;;;;;;;6.18;4.70;;;;;;;13.25;93.95;100847.72;4992813;28;19913;-73
2023/08/27 06:11:45;;;;;;;;;;;;;;;13.27;93.62;100849.03;5010467;28;20073;-72
2023/08/27 06:14:12;;;;;;;6.05;4.68;;;;;;;13.32;93.94;100837.44;4973237;28;19988;-72
2023/08/27 06:16:56;;;;;;;6.05;4.63;;;;;;;13.32;93.29;100834.75;5018860;28;20048;-73
2023/08/27 06:19:22;;;;;;;13.93;4.82;;;;;;;13.33;93.12;100825.56;4982160;28;20041;-72
2023/08/27 06:21:48;;;;;;;6.97;5.18;;;;;;;13.34;92.96;100835.25;4992960;28;20048;-72
2023/08/27 06:24:13;;;;;;;;;;;;;;;13.31;92.18;100825.06;4990527;28;20507;-72
2023/08/27 06:26:39;;;;;;;6.18;4.60;;;;;;;13.33;91.80;100818.31;4989298;28;19928;-73
2023/08/27 06:29:05;;;;;;;4.97;4.47;;;;;;;13.36;91.95;100820.44;4986369;28;20038;-71
2023/08/27 06:31:32;;;;;;;6.38;4.40;;;;;;;13.41;91.27;100818.75;5006078;28;20045;-73
2023/08/27 06:33:58;;;;;;;7.93;5.45;;;;;;;13.49;91.61;100818.97;4985207;28;20064;-74
2023/08/27 06:36:24;;;;;;;;;;;;;;;13.49;90.54;100821.66;5017686;28;20046;-74
2023/08/27 06:38:49;;;;;;;5.95;4.50;;;;;;;13.58;90.95;100829.88;5005766;28;19929;-73
2023/08/27 06:41:15;;;;;;;;;;;;;;;13.63;91.15;100837.91;4985209;28;20034;-72
2023/08/27 06:43:41;;;;;;;6.18;5.35;;;;;;;13.67;92.06;100836.22;4999804;28;20012;-73
2023/08/27 06:46:08;;;;;;;6.15;4.70;;;;;;;13.72;91.69;100825.41;4986540;28;20038;-73
2023/08/27 06:48:34;;;;;;;6.22;5.63;;;;;;;13.78;91.72;100832.31;5000418;28;20037;-73
2023/08/27 06:51:00;;;;;;;;;;;;;;;13.76;90.00;100828.31;4987903;28;20038;-71
2023/08/27 06:53:26;;;;;;;6.82;4.90;;;;;;;13.79;90.31;100833.13;4981588;28;20290;-71
2023/08/27 06:55:52;;;;;;;5.45;4.68;;;;;;;13.81;89.51;100834.41;5017478;28;20053;-72
2023/08/27 06:58:20;;;;;;;6.63;4.97;;;;;;;13.83;89.62;100840.34;5004887;28;20126;-73
2023/08/27 07:00:45;;;;;;;;;;;;;;;13.87;90.07;100841.34;4992810;28;20049;-73
2023/08/27 07:03:12;;;;;;;8.85;4.90;;;;;;;13.85;89.58;100838.16;4977989;28;20295;-72
2023/08/27 07:05:38;;;;;;;6.95;5.30;;;;;;;13.87;90.02;100830.56;5004927;28;20838;-73
2023/08/27 07:08:05;;;;;;;6.05;5.45;;;;;;;13.89;90.47;100824.94;5006390;28;20033;-73
2023/08/27 07:10:31;;;;;;;;;;;;;;;13.86;90.46;100818.22;5003110;28;20554;-72
2023/08/27 07:12:57;;;;;;;5.47;4.93;;;;;;;13.98;90.06;100814.31;4989803;28;19923;-71
2023/08/27 07:15:22;;;;;;;;;;;;;;;14.15;89.67;100806.50;4980799;28;20125;-73
2023/08/27 07:17:48;;;;;;;9.27;5.13;;;;;;;14.31;89.59;100807.91;5021219;28;19920;-72
2023/08/27 07:20:14;;;;;;;5.93;5.32;;;;;;;14.44;88.52;100812.53;5018429;28;20652;-72
2023/08/27 07:22:40;;;;;;;;;;;;;;;14.53;88.14;100803.81;5002118;28;20593;-74
2023/08/27 07:25:09;;;;;;;5.97;4.93;;;;;;;14.64;87.42;100808.75;4987023;28;19917;-73
2023/08/27 07:27:36;;;;;;;5.28;4.38;;;;;;;14.75;87.59;100803.97;5017857;28;20030;-73
2023/08/27 07:30:02;;;;;;;;;;;;;;;14.94;88.31;100799.31;4984744;28;20123;-73
2023/08/27 07:32:29;;;;;;;6.13;4.22;;;;;;;15.02;86.68;100800.53;5008263;28;20397;-73
2023/08/27 07:34:55;;;;;;;5.40;4.75;;;;;;;15.15;86.11;100793.56;4969740;28;20044;-73
2023/08/27 07:37:22;;;;;;;6.38;4.40;;;;;;;15.26;85.68;100808.47;4991678;28;20060;-73
2023/08/27 07:39:48;;;;;;;;;;;;;;;15.38;86.63;100803.38;4985849;28;20115;-71
2023/08/27 07:42:13;;;;;;;6.25;4.18;;;;;;;15.47;84.44;100806.16;4989356;28;19967;-71
2023/08/27 07:44:39;;;;;;;;;;;;;;;15.52;84.00;100804.19;4992966;28;20036;-71
2023/08/27 07:47:05;;;;;;;4.80;3.78;;;;;;;15.56;83.81;100805.16;4986255;28;19924;-72
2023/08/27 07:49:30;;;;;;;;;;;;;;;15.65;83.49;100805.28;5002863;22;20888;-81
2023/08/27 07:51:56;;;;;;;5.88;5.07;;;;;;;15.82;83.65;100801.97;4994189;28;19912;-79
2023/08/27 07:54:22;;;;;;;5.97;3.80;;;;;;;15.96;83.23;100808.13;5045619;28;20052;-81
2023/08/27 07:56:49;;;;;;;;;;;;;;;16.05;82.94;100800.91;5016034;28;20660;-82
2023/08/27 07:59:15;;;;;;;4.10;3.42;;;;;;;16.09;82.00;100796.50;5001600;28;20382;-81
2023/08/27 08:01:40;;;;;;;;;;;;;;;16.06;81.80;100797.13;5034933;28;20044;-81
2023/08/27 08:04:06;;;;;;;5.07;3.00;;;;;;;16.15;81.73;100807.97;5016802;28;20020;-80
2023/08/27 08:06:33;;;;;;;;;;;;;;;16.28;80.94;100803.63;5013176;28;20562;-81
2023/08/27 08:08:58;;;;;;;4.43;3.08;;;;;;;16.34;81.34;100805.13;5022756;28;19921;-82
2023/08/27 08:11:24;;;;;;;;;;;;;;;16.33;81.50;100817.84;5018588;28;20399;-82
2023/08/27 08:13:51;;;;;;;4.18;3.60;;;;;;;16.44;82.08;100831.09;5024098;28;19916;-81
2023/08/27 08:16:16;;;;;;;;;;;;;;;16.48;80.08;100851.81;5030708;28;20091;-80
2023/08/27 08:18:42;;;;;;;4.32;3.10;;;;;;;16.63;80.08;100837.91;5017560;28;19917;-81
2023/08/27 08:21:08;;;;;;;5.60;3.40;;;;;;;16.71;80.81;100833.72;5023333;28;20043;-82
2023/08/27 08:23:33;;;;;;;;;;;;;;;16.81;79.80;100840.78;4992953;28;20043;-81
2023/08/27 08:26:00;;;;;;;5.03;3.35;;;;;;;16.87;79.68;100829.53;5020530;28;19995;-81
2023/08/27 08:28:26;;;;;;;4.57;3.40;;;;;;;16.84;80.87;100827.44;4993810;28;20037;-81
2023/08/27 08:30:51;;;;;;;4.88;3.50;;;;;;;16.89;80.33;100821.09;5007772;28;20041;-81
2023/08/27 08:33:17;;;;;;;;;;;;;;;16.89;80.55;100840.81;5022982;28;20398;-82
2023/08/27 08:35:43;;;;;;;3.55;2.97;;;;;;;16.89;80.60;100842.75;5001116;28;19913;-85
2023/08/27 08:38:10;;;;;;;4.28;3.15;;;;;;;16.93;80.99;100838.28;5019482;28;20040;-83
2023/08/27 08:40:44;;;;;;;;;;;;;;;17.03;80.30;100829.94;5022366;28;20043;-82
2023/08/27 08:43:26;;;;;;;4.88;3.33;;;;;;;17.07;79.84;100820.09;5020241;28;19939;-82
2023/08/27 08:46:04;;;;;;;4.72;3.63;;;;;;;17.17;79.86;100786.53;5004405;28;20037;-82
2023/08/27 08:48:40;;;;;;;5.40;3.88;;;;;;;17.08;78.60;100781.09;5007259;28;20581;-81
2023/08/27 08:51:11;;;;;;;5.45;3.35;;;;;;;17.17;79.98;100773.81;5022710;28;20521;-82
2023/08/27 08:53:43;;;;;;;4.28;2.72;;;;;;;17.37;78.66;100766.22;5029166;28;20787;-82
2023/08/27 08:56:14;;;;;;;4.30;3.22;;;;;;;17.47;78.49;100774.03;5026207;28;20533;-82
2023/08/27 08:58:44;;;;;;;4.85;3.20;;;;;;;17.49;78.89;100782.66;5020538;28;20352;-84
2023/08/27 09:01:11;;;;;;;4.13;2.90;;;;;;;17.52;78.58;100779.31;5021461;28;20036;-81
2023/08/27 09:03:40;;;;;;;6.43;3.45;;;;;;;17.54;78.15;100779.78;5016661;28;20064;-82
2023/08/27 09:06:05;;;;;;;5.90;3.63;;;;;;;17.54;78.93;100776.28;5015847;28;20037;-82
2023/08/27 09:08:34;;;;;;;7.10;3.60;;;;;;;17.57;77.94;100783.78;5009209;28;20045;-83
2023/08/27 09:11:01;;;;;;;4.55;3.15;;;;;;;17.60;78.04;100773.13;4997960;28;20072;-83
2023/08/27 09:13:27;;;;;;;5.18;3.72;;;;;;;17.67;78.34;100784.28;5029695;28;20685;-83
2023/08/27 09:15:55;;;;;;;5.15;2.80;;;;;;;17.78;78.33;100789.44;5022536;28;20035;-84
2023/08/27 09:18:21;;;;;;;5.63;3.40;;;;;;;17.86;78.84;100794.88;5010769;28;20095;-86
2023/08/27 09:20:50;;;;;;;4.20;3.20;;;;;;;17.92;77.03;100790.88;5041006;28;20029;-80
2023/08/27 09:23:16;;;;;;;4.38;3.55;;;;;;;17.92;77.72;100787.38;5031586;28;20510;-85
2023/08/27 09:25:42;;;;;;;5.90;3.70;;;;;;;18.00;77.70;100792.00;5029865;28;20044;-82
2023/08/27 09:28:09;;;;;;;7.75;3.50;;;;;;;18.07;76.60;100797.75;5037324;28;20448;-83
2023/08/27 09:30:36;;;;;;;4.13;3.35;;;;;;;18.16;77.62;100784.22;5010213;28;20060;-82
2023/08/27 09:33:03;;;;;;;7.72;3.33;;;;;;;18.32;77.73;100781.81;5012834;28;20044;-83
2023/08/27 09:35:40;;;;;;;3.92;3.15;;;;;;;18.46;76.56;100782.44;5039706;28;20087;-81
2023/08/27 09:38:06;;;;;;;7.18;3.78;;;;;;;18.54;75.38;100793.25;5002014;28;20045;-80
2023/08/27 09:40:32;;;;;;;4.93;3.30;;;;;;;18.55;74.62;100780.47;5022790;28;20687;-81
2023/08/27 09:43:08;;;;;;;5.85;3.45;;;;;;;18.59;74.81;100789.59;5010092;28;20036;-82
2023/08/27 09:45:35;;;;;;;5.10;3.10;;;;;;;18.72;75.33;100791.34;5027784;28;20029;-81
2023/08/27 09:48:03;;;;;;;5.72;3.33;;;;;;;18.74;74.57;100778.25;5009872;28;20033;-82
2023/08/27 09:50:31;;;;;;;6.35;2.92;;;;;;;18.86;74.07;100769.44;5023302;28;20034;-81
2023/08/27 09:53:12;;;;;;;5.15;3.47;;;;;;;18.88;73.38;100769.09;5026024;28;20032;-79
2023/08/27 09:55:39;;;;;;;4.63;2.70;;;;;;;18.97;75.30;100767.97;5011709;28;20082;-81
2023/08/27 09:58:05;;;;;;;5.47;2.90;;;;;;;19.05;75.12;100759.00;5040040;28;20525;-81
2023/08/27 10:00:32;;;;;;;3.50;2.95;;;;;;;19.14;73.36;100758.94;5029465;28;20036;-81
2023/08/27 10:02:58;;;;;;;4.30;2.90;;;;;;;19.20;73.73;100760.34;5024312;28;20025;-83
2023/08/27 10:05:28;;;;;;;3.58;2.63;;;;;;;19.26;73.68;100760.97;5036139;28;20412;-82
2023/08/27 10:07:56;;;;;;;3.35;2.35;;;;;;;19.29;73.15;100761.09;5009987;28;20688;-80
2023/08/27 10:10:22;;;;;;;3.88;2.90;;;;;;;19.33;73.00;100767.47;4996081;28;20033;-84
2023/08/27 10:12:48;;;;;;;4.30;2.03;;;;;;;19.36;73.30;100761.38;5011807;28;20494;-83
2023/08/27 10:15:16;;;;;;;4.13;2.50;;;;;;;19.40;73.01;100760.75;4996963;28;20056;-84
2023/08/27 10:17:42;;;;;;;4.85;2.42;;;;;;;19.41;72.26;100757.69;5027542;28;20490;-84
2023/08/27 10:20:10;;;;;;;4.53;2.70;;;;;;;19.40;70.70;100752.59;5012566;28;20098;-83
2023/08/27 10:22:37;;;;;;;4.28;2.55;;;;;;;19.42;71.63;100748.41;5027988;28;20133;-84
2023/08/27 10:25:06;;;;;;;5.15;2.15;;;;;;;19.56;72.53;100742.72;5001095;28;20033;-83
2023/08/27 10:27:32;;;;;;;3.13;1.80;;;;;;;19.65;72.71;100738.09;5028205;28;20483;-85
2023/08/27 10:29:58;;;;;;;2.90;2.13;;;;;;;19.68;70.90;100734.69;5023536;28;20036;-83
2023/08/27 10:32:24;;;;;;;4.43;2.40;;;;;;;19.75;70.83;100734.97;5043757;28;20115;-85
2023/08/27 10:34:50;;;;;;;3.83;2.33;;;;;;;19.81;70.18;100733.63;5009625;28;20060;-84
2023/08/27 10:37:19;;;;;;;5.43;2.15;;;;;;;19.80;70.42;100720.38;5002321;28;20099;-84
2023/08/27 10:39:48;;;;;;;2.38;1.75;;;;;;;19.86;69.89;100714.44;5028070;28;20117;-85
2023/08/27 10:42:31;;;;;;;5.07;2.40;;;;;;;19.90;70.04;100715.34;5012861;28;20060;-84
2023/08/27 10:45:15;;;;;;;4.18;2.65;;;;;;;19.97;70.72;100714.00;5022049;28;20033;-83
2023/08/27 10:48:22;;;;;;;2.70;1.80;;;;;;;19.94;69.27;100709.25;5011597;28;20459;-84
2023/08/27 10:51:07;;;;;;;2.80;1.83;;;;;;;19.97;70.77;100698.47;5028780;28;20079;-84
2023/08/27 10:53:53;;;;;;;3.70;1.80;;;;;;;19.93;67.73;100696.78;5038221;28;20087;-83
2023/08/27 10:56:28;;;;;;;4.10;1.80;;;;;;;19.98;70.64;100688.41;5039067;28;20033;-84
2023/08/27 10:58:59;;;;;;;3.75;2.03;;;;;;;20.01;70.84;100690.47;5037410;28;20534;-83
2023/08/27 11:01:25;;;;;;;3.80;1.88;;;;;;;20.03;69.90;100689.00;5028146;28;20025;-83
2023/08/27 11:04:01;;;;;;;3.78;1.63;;;;;;;20.06;68.69;100693.00;5017467;28;20044;-84
2023/08/27 11:06:38;;;;;;;2.20;1.35;;;;;;;20.11;69.52;100690.84;5045243;28;20505;-85
2023/08/27 11:09:36;;;;;;;3.60;1.75;;;;;;;20.21;69.34;100697.00;5025975;28;20034;-86
2023/08/27 11:12:03;;;;;;;6.78;2.17;;;;;;;20.16;67.32;100684.41;5025446;28;20048;-84
2023/08/27 11:14:37;;;;;;;4.10;1.70;;;;;;;20.16;67.85;100674.31;5028023;28;20032;-85
2023/08/27 11:17:04;;;;;;;2.97;1.63;;;;;;;20.17;68.24;100672.38;5032763;28;20056;-85
2023/08/27 11:19:32;;;;;;;4.00;1.75;;;;;;;20.21;69.21;100676.03;5028803;28;20119;-84
2023/08/27 11:22:18;;;;;;;6.05;1.42;;;;;;;20.22;66.86;100674.91;5010926;28;20132;-86
2023/08/27 11:24:55;;;;;;;3.05;1.40;;;;;;;20.20;67.78;100669.03;5039152;28;20044;-85
2023/08/27 11:27:23;;;;;;;4.13;1.50;;;;;;;20.23;67.23;100672.97;5014994;28;20491;-83
2023/08/27 11:29:55;;;;;;;2.38;1.42;;;;;;;20.23;67.39;100689.28;5015357;28;20120;-84
2023/08/27 11:32:21;;;;;;;3.30;1.95;;;;;;;20.19;68.58;100683.75;5029548;28;20078;-83
2023/08/27 11:34:52;;;;;;;2.88;1.42;;;;;;;20.14;66.79;100678.50;5023945;28;20076;-84
2023/08/27 11:37:20;;;;;;;3.20;1.92;;;;;;;20.16;68.27;100678.97;5014080;28;20039;-84
2023/08/27 11:39:47;;;;;;;4.45;1.70;;;;;;;20.16;69.24;100678.97;5030234;28;20040;-84